Time;durP1;ratioP1;P1;durP2;ratioP2;P2;SDS_P1;SDS_P2;PMS_P1;PMS_P2;Temp;Humidity;BMP_temperature;BMP_pressure;BME280_temperature;BME280_humidity;BME280_pressure;Samples;Min_cycle;Max_cycle;Signal;HPM_P1;HPM_P2
2021/07/11 00:00:47;;;;;;;4.80;4.00;;;23.40;73.00;;;;;;6350587;27;20233;-65
2021/07/11 00:03:50;;;;;;;3.60;3.37;;;23.40;73.20;;;;;;6350050;27;20225;-64
2021/07/11 00:06:53;;;;;;;3.47;3.17;;;23.40;73.40;;;;;;6340776;27;20646;-65
2021/07/11 00:09:57;;;;;;;3.47;3.17;;;23.30;73.60;;;;;;6350061;27;20331;-64
2021/07/11 00:13:01;;;;;;;3.70;3.40;;;23.30;74.00;;;;;;6349924;27;20594;-63
2021/07/11 00:16:05;;;;;;;3.23;3.00;;;23.20;74.00;;;;;;6349735;27;20225;-63
2021/07/11 00:19:09;;;;;;;3.70;3.40;;;23.10;74.40;;;;;;6350103;27;20217;-63
2021/07/11 00:22:12;;;;;;;6.40;3.80;;;23.10;74.80;;;;;;6350003;27;20228;-63
2021/07/11 00:25:16;;;;;;;3.87;3.47;;;23.10;75.20;;;;;;6349563;27;20229;-64
2021/07/11 00:28:20;;;;;;;3.50;3.30;;;23.00;75.60;;;;;;6350027;27;20232;-64
2021/07/11 00:31:24;;;;;;;3.40;3.20;;;23.00;75.80;;;;;;6349216;27;20679;-64
2021/07/11 00:34:27;;;;;;;3.37;3.10;;;22.90;75.80;;;;;;6349776;27;20244;-64
2021/07/11 00:37:30;;;;;;;3.80;3.13;;;22.90;76.20;;;;;;6349450;27;20233;-64
2021/07/11 00:40:33;;;;;;;3.20;2.97;;;22.80;76.30;;;;;;6349530;27;20224;-64
2021/07/11 00:43:38;;;;;;;3.63;3.43;;;22.80;76.40;;;;;;6349550;27;20226;-64
2021/07/11 00:46:44;;;;;;;4.30;3.50;;;22.70;76.80;;;;;;6349339;27;20225;-65
2021/07/11 00:49:48;;;;;;;3.70;3.40;;;22.60;77.20;;;;;;6348835;27;20221;-64
2021/07/11 00:52:54;;;;;;;3.37;3.17;;;22.60;77.60;;;;;;6349489;27;20236;-65
2021/07/11 00:55:57;;;;;;;3.50;3.30;;;22.60;77.90;;;;;;6352789;27;20234;-65
2021/07/11 00:59:02;;;;;;;3.77;3.47;;;22.50;78.10;;;;;;6354522;27;20225;-64
2021/07/11 01:02:11;;;;;;;4.20;3.80;;;22.50;78.40;;;;;;6354491;27;20232;-65
2021/07/11 01:05:15;;;;;;;4.07;3.77;;;22.50;78.60;;;;;;6354461;27;20241;-64
2021/07/11 01:08:27;;;;;;;4.17;3.87;;;22.40;78.80;;;;;;6354163;27;20690;-64
2021/07/11 01:11:35;;;;;;;4.07;3.70;;;22.40;78.80;;;;;;6345102;27;20236;-65
2021/07/11 01:14:42;;;;;;;3.83;3.53;;;22.40;79.20;;;;;;6354077;27;20579;-64
2021/07/11 01:17:45;;;;;;;3.50;3.17;;;22.30;79.20;;;;;;6354176;27;20225;-64
2021/07/11 01:20:51;;;;;;;3.47;3.13;;;22.30;79.70;;;;;;6354156;27;20228;-64
2021/07/11 01:23:59;;;;;;;4.43;3.40;;;22.20;79.50;;;;;;6354407;27;20551;-65
2021/07/11 01:27:05;;;;;;;3.67;3.40;;;22.20;79.80;;;;;;6353787;27;20629;-64
2021/07/11 01:30:10;;;;;;;3.63;3.43;;;22.10;79.80;;;;;;6353494;27;20711;-65
2021/07/11 01:33:14;;;;;;;3.20;3.00;;;22.10;79.70;;;;;;6353902;27;20670;-65
2021/07/11 01:36:18;;;;;;;7.03;4.47;;;22.10;79.40;;;;;;6353457;27;20240;-64
2021/07/11 01:39:23;;;;;;;4.00;3.20;;;22.10;79.10;;;;;;6328769;28;20344;-64
2021/07/11 01:42:29;;;;;;;3.97;3.67;;;22.00;78.90;;;;;;6353538;28;20209;-64
2021/07/11 01:45:33;;;;;;;5.07;3.57;;;22.00;78.80;;;;;;6353705;28;20221;-64
2021/07/11 01:48:38;;;;;;;4.40;4.10;;;22.00;79.30;;;;;;6353660;28;20232;-64
2021/07/11 01:51:42;;;;;;;3.70;3.40;;;22.00;79.10;;;;;;6353743;28;20230;-64
2021/07/11 01:54:45;;;;;;;3.77;3.57;;;22.00;79.20;;;;;;6352953;28;20744;-64
2021/07/11 01:57:50;;;;;;;4.10;3.70;;;22.10;79.20;;;;;;6353247;28;20244;-64
2021/07/11 02:00:55;;;;;;;3.67;3.37;;;22.10;78.80;;;;;;6352655;27;20228;-64
2021/07/11 02:03:58;;;;;;;3.30;3.10;;;22.20;78.50;;;;;;6353043;28;20227;-64
2021/07/11 02:07:01;;;;;;;3.57;3.27;;;22.10;78.50;;;;;;6352335;28;20229;-64
2021/07/11 02:10:07;;;;;;;3.77;2.83;;;22.10;78.50;;;;;;6352972;28;20229;-64
2021/07/11 02:13:16;;;;;;;3.63;2.43;;;22.20;78.40;;;;;;6332716;27;20222;-64
2021/07/11 02:16:24;;;;;;;3.30;3.00;;;22.20;78.30;;;;;;6326820;28;20317;-64
2021/07/11 02:19:30;;;;;;;3.53;2.90;;;22.20;78.10;;;;;;6325952;28;20279;-64
2021/07/11 02:22:35;;;;;;;3.67;2.70;;;22.10;77.90;;;;;;6327397;28;20233;-63
2021/07/11 02:25:39;;;;;;;2.53;2.33;;;22.10;78.20;;;;;;6326745;28;20217;-68
2021/07/11 02:28:44;;;;;;;2.80;2.60;;;22.10;78.60;;;;;;6325824;28;20229;-70
2021/07/11 02:31:47;;;;;;;3.23;2.93;;;22.10;79.10;;;;;;6325673;28;20275;-71
2021/07/11 02:34:51;;;;;;;2.87;2.67;;;22.00;79.30;;;;;;6322937;28;20221;-68
2021/07/11 02:37:55;;;;;;;2.80;2.60;;;21.90;80.10;;;;;;6325882;28;20557;-63
2021/07/11 02:40:58;;;;;;;2.33;2.23;;;21.90;80.10;;;;;;6326135;28;20222;-63
2021/07/11 02:44:06;;;;;;;3.17;2.87;;;21.90;80.10;;;;;;6325427;28;20234;-63
2021/07/11 02:47:12;;;;;;;4.70;2.73;;;21.90;80.40;;;;;;6326024;28;20717;-63
2021/07/11 02:50:17;;;;;;;3.20;2.90;;;21.80;80.50;;;;;;6326860;28;20226;-64
2021/07/11 02:53:23;;;;;;;2.77;2.57;;;21.80;80.00;;;;;;6326679;28;20253;-63
2021/07/11 02:56:28;;;;;;;6.37;3.27;;;21.90;79.70;;;;;;6326726;28;20234;-64
2021/07/11 02:59:34;;;;;;;4.33;3.00;;;22.00;79.10;;;;;;6326496;28;20267;-63
2021/07/11 03:02:41;;;;;;;3.57;2.87;;;22.00;78.90;;;;;;6326260;28;20683;-63
2021/07/11 03:05:44;;;;;;;3.23;3.03;;;21.90;78.70;;;;;;6325942;28;20246;-64
2021/07/11 03:08:47;;;;;;;4.90;3.60;;;22.00;78.80;;;;;;6326451;28;20226;-64
2021/07/11 03:11:55;;;;;;;3.63;3.33;;;22.10;78.30;;;;;;6325898;28;20248;-64
2021/07/11 03:15:00;;;;;;;3.73;3.03;;;22.10;77.90;;;;;;6325921;28;20233;-64
2021/07/11 03:18:04;;;;;;;4.07;3.07;;;22.10;77.80;;;;;;6325079;28;20229;-63
2021/07/11 03:21:08;;;;;;;2.70;2.50;;;22.20;77.70;;;;;;6312046;28;20343;-64
2021/07/11 03:24:12;;;;;;;3.00;2.50;;;22.20;78.00;;;;;;6325595;28;20613;-64
2021/07/11 03:27:16;;;;;;;2.67;2.47;;;22.20;78.00;;;;;;6326074;28;20242;-62
2021/07/11 03:30:22;;;;;;;5.23;2.63;;;22.10;78.40;;;;;;6325536;28;20237;-64
2021/07/11 03:33:27;;;;;;;2.43;2.27;;;22.10;78.80;;;;;;6350628;27;20236;-64
2021/07/11 03:36:33;;;;;;;3.57;2.40;;;22.10;78.60;;;;;;6350616;27;20236;-64
2021/07/11 03:39:38;;;;;;;2.77;2.50;;;22.10;78.50;;;;;;6350989;27;20193;-63
2021/07/11 03:42:43;;;;;;;2.63;2.43;;;22.00;78.60;;;;;;6351615;27;20225;-63
2021/07/11 03:45:48;;;;;;;2.70;2.50;;;22.00;77.80;;;;;;6349521;27;20225;-62
2021/07/11 03:48:54;;;;;;;2.80;2.50;;;22.10;77.00;;;;;;6349651;27;20685;-63
2021/07/11 03:52:00;;;;;;;2.60;2.40;;;22.10;77.00;;;;;;6348828;27;20226;-63
2021/07/11 03:55:03;;;;;;;2.70;2.50;;;22.10;77.10;;;;;;6349153;27;20233;-62
2021/07/11 03:58:09;;;;;;;3.10;2.83;;;22.20;77.20;;;;;;6347470;27;20225;-63
2021/07/11 04:01:17;;;;;;;2.80;2.60;;;22.30;76.90;;;;;;6348127;27;20232;-63
2021/07/11 04:04:23;;;;;;;3.87;3.57;;;22.30;76.90;;;;;;6347609;27;20229;-64
2021/07/11 04:07:27;;;;;;;4.13;3.70;;;22.30;76.90;;;;;;6347774;27;20240;-64
2021/07/11 04:10:32;;;;;;;4.50;4.20;;;22.30;76.50;;;;;;6347744;27;20240;-64
2021/07/11 04:13:36;;;;;;;3.50;3.20;;;22.40;76.40;;;;;;6348151;27;20237;-64
2021/07/11 04:16:40;;;;;;;3.43;3.10;;;22.40;76.60;;;;;;6348621;27;20339;-64
2021/07/11 04:19:46;;;;;;;2.93;2.70;;;22.40;76.80;;;;;;6348176;27;20225;-64
2021/07/11 04:22:55;;;;;;;4.80;3.03;;;22.50;76.80;;;;;;6339507;27;20243;-63
2021/07/11 04:25:59;;;;;;;4.43;4.07;;;22.50;76.80;;;;;;6348913;27;20241;-64
2021/07/11 04:29:03;;;;;;;3.23;3.03;;;22.60;76.60;;;;;;6349407;27;20255;-64
2021/07/11 04:32:10;;;;;;;3.70;3.50;;;22.70;76.40;;;;;;6349544;27;20237;-64
2021/07/11 04:35:14;;;;;;;3.10;2.90;;;22.60;76.10;;;;;;6349344;27;20230;-63
2021/07/11 04:38:18;;;;;;;4.00;3.50;;;22.60;75.90;;;;;;6349481;27;20236;-64
2021/07/11 04:41:21;;;;;;;3.27;3.07;;;22.70;75.60;;;;;;6349451;27;20251;-65
2021/07/11 04:44:24;;;;;;;7.47;3.80;;;22.60;75.80;;;;;;6348756;27;20233;-64
2021/07/11 04:47:29;;;;;;;3.33;3.10;;;22.60;75.90;;;;;;6349273;27;20225;-64
2021/07/11 04:50:32;;;;;;;3.73;3.30;;;22.60;76.30;;;;;;6349315;27;20679;-64
2021/07/11 04:53:35;;;;;;;3.37;3.17;;;22.70;75.80;;;;;;6349157;27;20701;-64
2021/07/11 04:56:39;;;;;;;3.33;3.03;;;22.80;75.60;;;;;;6348612;27;20234;-64
2021/07/11 04:59:43;;;;;;;2.70;2.50;;;22.80;75.30;;;;;;6349302;27;20244;-64
2021/07/11 05:02:48;;;;;;;3.30;3.00;;;22.90;75.30;;;;;;6348742;27;20257;-64
2021/07/11 05:05:51;;;;;;;3.73;2.80;;;23.10;74.90;;;;;;6349206;27;20683;-65
2021/07/11 05:08:54;;;;;;;3.37;3.07;;;23.10;75.00;;;;;;6349098;27;20229;-65
2021/07/11 05:11:58;;;;;;;4.37;3.70;;;23.00;75.60;;;;;;6349365;27;20242;-64
2021/07/11 05:15:01;;;;;;;3.43;3.20;;;23.10;74.70;;;;;;6348608;27;20532;-64
2021/07/11 05:18:05;;;;;;;3.60;2.93;;;23.10;74.40;;;;;;6348860;27;20702;-64
2021/07/11 05:21:08;;;;;;;4.00;3.20;;;23.20;74.40;;;;;;6349315;27;20225;-64
2021/07/11 05:24:12;;;;;;;3.40;3.20;;;23.30;74.30;;;;;;6349012;27;20682;-64
2021/07/11 05:27:15;;;;;;;3.50;3.23;;;23.30;74.00;;;;;;6340065;27;20259;-63
2021/07/11 05:30:20;;;;;;;5.13;3.13;;;23.40;73.70;;;;;;6348406;27;20236;-63
2021/07/11 05:33:24;;;;;;;3.80;3.50;;;23.50;73.70;;;;;;6323692;28;20304;-63
2021/07/11 05:36:28;;;;;;;3.40;3.10;;;23.50;73.20;;;;;;6323059;28;20253;-64
2021/07/11 05:39:31;;;;;;;3.70;3.40;;;23.60;73.30;;;;;;6323483;28;20212;-63
2021/07/11 05:42:34;;;;;;;3.67;3.37;;;23.70;73.40;;;;;;6327545;28;20198;-64
2021/07/11 05:45:37;;;;;;;3.83;3.33;;;23.90;73.20;;;;;;6328131;28;20249;-64
2021/07/11 05:48:42;;;;;;;4.40;2.97;;;24.00;72.60;;;;;;6327951;28;20209;-64
2021/07/11 05:51:45;;;;;;;3.43;3.13;;;24.10;72.50;;;;;;6328192;28;20229;-64
2021/07/11 05:54:48;;;;;;;3.37;3.10;;;24.20;72.10;;;;;;6327958;28;20230;-64
2021/07/11 05:57:51;;;;;;;3.77;3.40;;;24.30;72.20;;;;;;6328049;28;20233;-64
2021/07/11 06:00:54;;;;;;;3.50;3.20;;;24.30;72.10;;;;;;6328021;28;20245;-63
2021/07/11 06:03:59;;;;;;;3.27;2.97;;;24.20;71.60;;;;;;6327303;28;20564;-64
2021/07/11 06:07:03;;;;;;;3.70;3.27;;;24.20;71.00;;;;;;6327841;28;20230;-64
2021/07/11 06:10:07;;;;;;;5.87;3.53;;;24.20;71.00;;;;;;6327603;28;20555;-64
2021/07/11 06:13:11;;;;;;;2.90;2.70;;;24.30;70.80;;;;;;6328025;28;20230;-64
2021/07/11 06:16:14;;;;;;;3.80;3.00;;;24.30;70.80;;;;;;6326977;28;20225;-64
2021/07/11 06:19:19;;;;;;;3.30;3.10;;;24.40;70.50;;;;;;6327905;28;20241;-64
2021/07/11 06:22:22;;;;;;;3.30;3.00;;;24.40;70.10;;;;;;6327206;28;20218;-64
2021/07/11 06:25:25;;;;;;;3.30;2.53;;;24.60;69.70;;;;;;6328147;28;20229;-64
2021/07/11 06:28:29;;;;;;;4.60;3.10;;;24.80;68.90;;;;;;6322729;28;20238;-64
2021/07/11 06:31:32;;;;;;;3.20;2.90;;;25.00;68.70;;;;;;6327305;28;20245;-64
2021/07/11 06:34:37;;;;;;;3.97;2.90;;;25.30;67.90;;;;;;6326958;28;20294;-65
2021/07/11 06:37:41;;;;;;;3.93;3.50;;;25.50;67.60;;;;;;6326197;28;20218;-63
2021/07/11 06:40:45;;;;;;;3.20;3.00;;;25.80;65.90;;;;;;6325500;28;20229;-63
2021/07/11 06:43:48;;;;;;;3.30;2.63;;;25.80;65.40;;;;;;6338687;28;20236;-64
2021/07/11 06:46:51;;;;;;;6.30;2.83;;;26.00;65.70;;;;;;6351875;27;20233;-64
2021/07/11 06:49:55;;;;;;;3.20;2.90;;;26.20;64.40;;;;;;6351805;28;20229;-65
2021/07/11 06:52:59;;;;;;;5.43;3.33;;;26.50;63.50;;;;;;6350634;28;20586;-64
2021/07/11 06:56:02;;;;;;;4.03;3.43;;;27.10;62.70;;;;;;6351328;28;20576;-64
2021/07/11 06:59:06;;;;;;;5.03;3.40;;;27.50;60.10;;;;;;6350770;28;20572;-65
2021/07/11 07:02:09;;;;;;;5.90;2.60;;;27.50;60.20;;;;;;6351142;28;20224;-64
2021/07/11 07:05:14;;;;;;;4.07;3.20;;;27.80;59.90;;;;;;6351584;27;20692;-64
2021/07/11 07:08:17;;;;;;;3.80;2.67;;;28.10;58.00;;;;;;6351289;28;20235;-64
2021/07/11 07:11:20;;;;;;;4.00;2.93;;;28.00;57.60;;;;;;6351944;27;20235;-65
2021/07/11 07:14:25;;;;;;;2.93;2.73;;;27.90;58.30;;;;;;6351249;28;20233;-65
2021/07/11 07:17:28;;;;;;;4.73;2.90;;;28.20;57.30;;;;;;6351315;27;20674;-65
2021/07/11 07:20:33;;;;;;;4.70;3.07;;;28.10;56.90;;;;;;6351392;28;20240;-64
2021/07/11 07:23:36;;;;;;;3.70;2.87;;;28.00;57.10;;;;;;6350601;28;20225;-64
2021/07/11 07:26:40;;;;;;;5.00;2.87;;;28.60;56.50;;;;;;6351363;28;20568;-64
2021/07/11 07:29:43;;;;;;;2.83;2.50;;;29.60;55.30;;;;;;6351124;27;20303;-64
2021/07/11 07:32:49;;;;;;;2.80;2.50;;;30.60;53.50;;;;;;6351284;28;20244;-64
2021/07/11 07:35:54;;;;;;;6.27;2.90;;;31.40;51.70;;;;;;6350772;28;20595;-65
2021/07/11 07:38:57;;;;;;;2.60;2.40;;;31.50;51.10;;;;;;6350979;28;20232;-64
2021/07/11 07:42:01;;;;;;;3.20;2.83;;;32.30;50.70;;;;;;6350637;28;20229;-65
2021/07/11 07:45:05;;;;;;;4.43;2.97;;;32.20;49.20;;;;;;6351158;28;20232;-64
2021/07/11 07:48:09;;;;;;;2.95;2.75;;;31.50;50.00;;;;;;6350637;28;20723;-64
2021/07/11 07:51:14;;;;;;;2.63;2.20;;;30.90;50.70;;;;;;6351071;28;20225;-65
2021/07/11 07:54:17;;;;;;;3.37;3.17;;;30.40;51.80;;;;;;6350122;28;20231;-64
2021/07/11 07:57:20;;;;;;;3.27;3.00;;;29.90;53.10;;;;;;6350939;28;20685;-64
2021/07/11 08:00:24;;;;;;;3.53;2.50;;;29.50;53.60;;;;;;6350008;27;20235;-64
2021/07/11 08:03:28;;;;;;;7.63;3.40;;;29.20;54.70;;;;;;6325088;28;20555;-65
2021/07/11 08:06:33;;;;;;;3.33;2.53;;;28.50;56.40;;;;;;6349796;28;20256;-64
2021/07/11 08:09:36;;;;;;;5.67;2.70;;;29.10;57.20;;;;;;6349975;28;20205;-64
2021/07/11 08:12:40;;;;;;;3.57;2.70;;;29.80;55.50;;;;;;6349882;28;20205;-65
2021/07/11 08:15:44;;;;;;;3.57;2.33;;;29.70;56.10;;;;;;6350003;28;21782;-65
2021/07/11 08:18:48;;;;;;;3.23;1.83;;;30.10;55.80;;;;;;6349602;28;20357;-65
2021/07/11 08:21:53;;;;;;;2.58;1.73;;;30.80;52.10;;;;;;6349765;28;20240;-65
2021/07/11 08:24:57;;;;;;;2.70;2.35;;;31.10;51.70;;;;;;6350378;28;20235;-65
2021/07/11 08:28:00;;;;;;;3.97;1.50;;;31.20;51.40;;;;;;6349644;28;20307;-65
2021/07/11 08:31:04;;;;;;;1.50;1.40;;;31.50;50.30;;;;;;6349772;28;20558;-64
2021/07/11 08:34:07;;;;;;;2.15;1.35;;;31.60;47.40;;;;;;6349193;28;20240;-64
2021/07/11 08:37:12;;;;;;;1.80;1.70;;;31.40;47.10;;;;;;6345972;28;20235;-64
2021/07/11 08:40:15;;;;;;;3.05;1.52;;;31.40;47.60;;;;;;6349282;28;20712;-65
2021/07/11 08:43:20;;;;;;;4.00;2.00;;;31.30;48.30;;;;;;6348985;28;20221;-63
2021/07/11 08:46:24;;;;;;;2.88;1.60;;;31.30;47.50;;;;;;6349042;28;20236;-64
2021/07/11 08:49:27;;;;;;;2.75;1.75;;;31.20;47.90;;;;;;6348335;28;20308;-65
2021/07/11 08:52:32;;;;;;;2.00;1.90;;;31.10;47.60;;;;;;6347774;28;20252;-65
2021/07/11 08:55:36;;;;;;;3.65;1.40;;;31.00;48.50;;;;;;6348012;28;20229;-64
2021/07/11 08:58:39;;;;;;;2.30;2.20;;;31.10;48.20;;;;;;6348537;28;20232;-65
2021/07/11 09:01:43;;;;;;;1.65;1.55;;;31.60;47.90;;;;;;6349665;28;20232;-65
2021/07/11 09:04:47;;;;;;;1.88;1.55;;;31.80;48.10;;;;;;6349267;28;20228;-66
2021/07/11 09:08:01;;;;;;;3.35;1.85;;;31.70;48.50;;;;;;6349291;28;20243;-64
2021/07/11 09:11:04;;;;;;;2.75;1.80;;;31.90;47.40;;;;;;6349556;28;20225;-64
2021/07/11 09:14:17;;;;;;;2.08;1.98;;;32.10;47.80;;;;;;6349281;28;20233;-64
2021/07/11 09:17:20;;;;;;;1.92;1.48;;;32.40;47.00;;;;;;6353345;28;20573;-65
2021/07/11 09:20:24;;;;;;;2.05;1.85;;;32.40;44.80;;;;;;6354672;28;20241;-64
2021/07/11 09:23:31;;;;;;;4.05;1.73;;;32.10;45.30;;;;;;6354350;28;20228;-64
2021/07/11 09:26:37;;;;;;;2.08;1.92;;;31.90;46.70;;;;;;6354100;28;20285;-64
2021/07/11 09:29:42;;;;;;;1.80;1.70;;;31.80;47.60;;;;;;6354383;27;20682;-64
2021/07/11 09:32:46;;;;;;;2.22;1.60;;;31.90;47.70;;;;;;6353966;28;20229;-64
2021/07/11 09:35:51;;;;;;;2.22;1.73;;;32.10;47.00;;;;;;6354135;28;20747;-64
2021/07/11 09:39:01;;;;;;;1.45;1.30;;;31.90;46.10;;;;;;6353552;28;20233;-64
2021/07/11 09:42:06;;;;;;;2.08;1.90;;;31.90;45.90;;;;;;6353620;28;20374;-65
2021/07/11 09:45:17;;;;;;;1.60;1.50;;;32.00;46.50;;;;;;6348896;28;20239;-65
2021/07/11 09:48:20;;;;;;;1.70;1.60;;;32.00;45.80;;;;;;6353788;28;20239;-64
2021/07/11 09:51:26;;;;;;;1.60;1.50;;;32.30;45.40;;;;;;6353329;27;20570;-64
2021/07/11 09:54:31;;;;;;;1.58;1.48;;;32.20;45.90;;;;;;6328586;28;20222;-63
2021/07/11 09:57:37;;;;;;;2.10;1.63;;;32.30;45.60;;;;;;6353026;28;20556;-64
2021/07/11 10:00:53;;;;;;;2.28;2.08;;;32.30;46.30;;;;;;6353925;28;20231;-63
2021/07/11 10:03:57;;;;;;;2.00;1.90;;;32.30;46.50;;;;;;6353281;28;20217;-65
2021/07/11 10:07:02;;;;;;;1.70;1.60;;;31.90;47.30;;;;;;6353430;28;20225;-64
2021/07/11 10:10:09;;;;;;;2.15;2.05;;;31.80;47.20;;;;;;6353088;28;20224;-64
2021/07/11 10:13:13;;;;;;;2.42;2.22;;;32.20;46.80;;;;;;6353086;28;20220;-64
2021/07/11 10:16:17;;;;;;;1.95;1.85;;;32.00;47.00;;;;;;6350912;28;20248;-64
2021/07/11 10:19:21;;;;;;;2.05;1.85;;;31.70;46.90;;;;;;6352911;28;20573;-65
2021/07/11 10:22:25;;;;;;;2.10;2.00;;;31.90;47.50;;;;;;6333331;27;20225;-65
2021/07/11 10:25:32;;;;;;;2.90;2.70;;;31.80;48.10;;;;;;6326993;28;20316;-66
2021/07/11 10:28:38;;;;;;;2.53;2.33;;;31.50;48.50;;;;;;6301712;28;20515;-65
2021/07/11 10:31:45;;;;;;;4.30;2.23;;;30.40;49.40;;;;;;6317752;28;20721;-63
2021/07/11 10:34:48;;;;;;;2.70;2.50;;;29.80;50.40;;;;;;6326757;28;20317;-64
2021/07/11 10:37:53;;;;;;;3.00;2.80;;;29.30;51.70;;;;;;6327174;28;20229;-65
2021/07/11 10:41:10;;;;;;;3.43;2.90;;;29.20;52.10;;;;;;6339951;28;20224;-63
2021/07/11 10:44:19;;;;;;;2.70;2.50;;;29.20;51.60;;;;;;6336925;27;20230;-63
2021/07/11 10:47:24;;;;;;;3.90;2.73;;;29.50;52.60;;;;;;6317223;28;20283;-64
2021/07/11 10:50:29;;;;;;;2.80;2.60;;;29.70;51.80;;;;;;6326239;28;20221;-64
2021/07/11 10:53:35;;;;;;;2.93;2.73;;;29.80;51.90;;;;;;6343762;28;20290;-63
2021/07/11 10:56:44;;;;;;;3.03;2.83;;;29.80;51.80;;;;;;6332441;27;20282;-64
2021/07/11 10:59:47;;;;;;;3.00;2.80;;;29.50;52.10;;;;;;6326117;28;20558;-64
2021/07/11 11:02:53;;;;;;;3.17;2.87;;;29.70;52.40;;;;;;6325104;28;20240;-64
2021/07/11 11:05:56;;;;;;;4.50;4.10;;;30.00;52.30;;;;;;6325746;28;20225;-65
2021/07/11 11:09:00;;;;;;;3.53;3.23;;;30.30;51.60;;;;;;6346815;27;20540;-63
2021/07/11 11:12:18;;;;;;;3.20;3.00;;;30.50;51.10;;;;;;6329242;28;20225;-63
2021/07/11 11:15:22;;;;;;;3.93;3.53;;;30.30;50.70;;;;;;6325394;28;20238;-63
2021/07/11 11:18:28;;;;;;;3.00;2.80;;;29.90;52.00;;;;;;6325770;28;20229;-64
2021/07/11 11:21:31;;;;;;;3.10;2.90;;;30.10;51.60;;;;;;6325858;28;20572;-65
2021/07/11 11:24:40;;;;;;;2.60;2.40;;;30.30;50.70;;;;;;6350089;28;20220;-64
2021/07/11 11:27:45;;;;;;;2.83;2.63;;;30.00;51.40;;;;;;6325113;28;20194;-64
2021/07/11 11:30:49;;;;;;;5.37;3.23;;;30.00;50.70;;;;;;6325635;28;20233;-64
2021/07/11 11:33:55;;;;;;;3.30;2.90;;;29.90;51.40;;;;;;6328066;28;20239;-63
2021/07/11 11:36:59;;;;;;;3.20;2.90;;;30.30;51.30;;;;;;6346086;27;20236;-64
2021/07/11 11:40:09;;;;;;;3.07;2.77;;;30.50;51.00;;;;;;6321817;28;20233;-64
2021/07/11 11:43:23;;;;;;;3.40;2.97;;;30.30;50.60;;;;;;6325148;28;20218;-64
2021/07/11 11:46:28;;;;;;;3.27;2.97;;;30.20;51.50;;;;;;6324940;28;20575;-63
2021/07/11 11:49:33;;;;;;;3.60;3.30;;;30.30;50.80;;;;;;6319674;28;20677;-64
2021/07/11 11:52:37;;;;;;;3.75;3.33;;;30.50;50.60;;;;;;6324239;28;20221;-64
2021/07/11 11:55:46;;;;;;;3.08;2.67;;;30.80;50.40;;;;;;6334357;28;20229;-64
2021/07/11 11:59:00;;;;;;;3.60;3.30;;;30.80;50.30;;;;;;6336204;28;20552;-63
2021/07/11 12:02:05;;;;;;;3.53;3.22;;;30.80;50.00;;;;;;6321607;28;20249;-63
2021/07/11 12:05:10;;;;;;;3.20;2.90;;;30.30;50.50;;;;;;6320945;28;20573;-63
2021/07/11 12:08:13;;;;;;;3.83;3.53;;;30.10;50.80;;;;;;6322124;28;20236;-64
2021/07/11 12:11:17;;;;;;;3.57;3.23;;;29.90;51.20;;;;;;6335471;28;20220;-63
2021/07/11 12:14:22;;;;;;;3.30;2.93;;;29.60;51.90;;;;;;6331972;27;20248;-63
2021/07/11 12:17:31;;;;;;;3.30;3.10;;;29.50;52.60;;;;;;6323240;28;20221;-63
2021/07/11 12:20:35;;;;;;;4.23;3.57;;;29.80;52.50;;;;;;6339762;27;20628;-63
2021/07/11 12:23:41;;;;;;;3.27;3.07;;;30.10;52.00;;;;;;6330855;27;20626;-62
2021/07/11 12:26:46;;;;;;;3.70;3.40;;;30.30;51.30;;;;;;6323739;28;20233;-64
2021/07/11 12:29:51;;;;;;;2.90;2.70;;;30.50;50.00;;;;;;6324162;28;20225;-62
2021/07/11 12:32:55;;;;;;;3.40;3.07;;;30.60;48.10;;;;;;6323734;28;20244;-62
2021/07/11 12:36:01;;;;;;;4.05;3.78;;;30.70;49.20;;;;;;6324243;28;20225;-63
2021/07/11 12:39:16;;;;;;;3.80;3.30;;;30.50;50.60;;;;;;6323784;28;20564;-63
2021/07/11 12:42:23;;;;;;;4.03;3.40;;;30.60;51.30;;;;;;6324235;28;20229;-63
2021/07/11 12:45:28;;;;;;;3.23;3.03;;;30.60;50.70;;;;;;6323600;28;20304;-64
2021/07/11 12:48:39;;;;;;;3.87;3.53;;;30.10;51.50;;;;;;6323874;28;20202;-63
2021/07/11 12:51:48;;;;;;;3.40;3.13;;;30.30;51.60;;;;;;6325281;28;20502;-63
2021/07/11 12:54:52;;;;;;;6.00;2.93;;;30.40;51.40;;;;;;6345725;27;20233;-62
2021/07/11 12:57:55;;;;;;;3.13;2.90;;;30.20;52.30;;;;;;6323946;28;20229;-63
2021/07/11 13:01:04;;;;;;;5.57;3.00;;;30.20;51.90;;;;;;6323496;28;20378;-65
2021/07/11 13:04:08;;;;;;;3.27;2.93;;;30.40;52.00;;;;;;6329392;28;20236;-64
2021/07/11 13:07:13;;;;;;;3.70;3.40;;;30.70;52.00;;;;;;6343080;28;20269;-64
2021/07/11 13:10:17;;;;;;;4.67;3.40;;;30.10;52.70;;;;;;6324375;28;20226;-64
2021/07/11 13:13:21;;;;;;;3.63;3.27;;;29.90;53.20;;;;;;6330728;28;20699;-66
2021/07/11 13:16:26;;;;;;;3.87;3.40;;;30.00;53.10;;;;;;6340226;28;20236;-64
2021/07/11 13:19:33;;;;;;;3.80;3.50;;;30.20;52.80;;;;;;6322160;28;20399;-64
2021/07/11 13:22:36;;;;;;;3.60;3.40;;;30.30;52.30;;;;;;6329676;28;20674;-64
2021/07/11 13:25:42;;;;;;;3.57;3.33;;;30.40;51.60;;;;;;6336599;28;20701;-64
2021/07/11 13:28:47;;;;;;;3.20;3.00;;;30.20;51.50;;;;;;6322142;28;20279;-64
2021/07/11 13:31:52;;;;;;;5.10;3.50;;;30.10;52.00;;;;;;6318803;28;20226;-64
2021/07/11 13:34:55;;;;;;;7.83;3.83;;;29.70;53.10;;;;;;6321511;28;20307;-62
2021/07/11 13:37:58;;;;;;;3.80;3.50;;;29.60;53.50;;;;;;6322310;28;20222;-61
2021/07/11 13:41:02;;;;;;;3.47;3.17;;;29.60;53.70;;;;;;6337239;28;20282;-62
2021/07/11 13:44:06;;;;;;;3.93;3.63;;;29.80;52.90;;;;;;6334842;27;20241;-62
2021/07/11 13:47:10;;;;;;;5.90;3.63;;;29.80;52.60;;;;;;6323558;28;20557;-62
2021/07/11 13:50:17;;;;;;;4.33;4.03;;;29.90;52.70;;;;;;6323443;28;20232;-64
2021/07/11 13:53:21;;;;;;;3.60;3.30;;;29.90;52.70;;;;;;6322830;28;20225;-63
2021/07/11 13:56:24;;;;;;;4.17;3.87;;;29.90;52.90;;;;;;6333805;28;20623;-62
2021/07/11 13:59:28;;;;;;;3.73;3.43;;;29.40;53.00;;;;;;6331081;27;20221;-63
2021/07/11 14:02:32;;;;;;;4.93;4.53;;;29.00;54.20;;;;;;6324677;28;20252;-61
2021/07/11 14:05:36;;;;;;;4.27;3.93;;;29.10;55.20;;;;;;6325032;28;20226;-62
2021/07/11 14:08:40;;;;;;;4.47;4.07;;;29.30;55.20;;;;;;6327589;28;20234;-63
2021/07/11 14:11:43;;;;;;;4.57;4.27;;;29.60;55.10;;;;;;6327412;28;20635;-63
2021/07/11 14:14:47;;;;;;;4.90;4.53;;;29.80;55.10;;;;;;6327246;28;20300;-62
2021/07/11 14:17:52;;;;;;;5.83;5.30;;;29.30;56.70;;;;;;6324889;28;20672;-63
2021/07/11 14:20:55;;;;;;;4.67;3.90;;;29.10;57.60;;;;;;6324852;28;20236;-63
2021/07/11 14:23:58;;;;;;;5.17;4.77;;;29.20;57.30;;;;;;6323858;28;20678;-65
2021/07/11 14:27:18;;;;;;;9.53;4.67;;;29.20;57.30;;;;;;6323689;28;20621;-63
2021/07/11 14:30:21;;;;;;;4.83;4.43;;;29.30;57.30;;;;;;6324930;28;20233;-63
2021/07/11 14:33:27;;;;;;;6.00;4.90;;;29.30;57.40;;;;;;6327378;28;20237;-63
2021/07/11 14:36:30;;;;;;;5.13;4.73;;;29.20;57.20;;;;;;6326130;28;20312;-64
2021/07/11 14:39:34;;;;;;;5.80;5.30;;;28.80;58.00;;;;;;6327648;28;20206;-63
2021/07/11 14:42:37;;;;;;;5.70;5.23;;;28.50;58.70;;;;;;6327367;28;20201;-63
2021/07/11 14:45:40;;;;;;;5.83;5.10;;;28.20;59.40;;;;;;6327018;28;20553;-63
2021/07/11 14:48:45;;;;;;;6.73;5.70;;;28.30;59.10;;;;;;6326771;28;20216;-63
2021/07/11 14:51:49;;;;;;;5.50;5.00;;;28.50;59.10;;;;;;6327374;28;20225;-64
2021/07/11 14:54:52;;;;;;;5.77;5.27;;;28.20;59.50;;;;;;6326388;28;20648;-61
2021/07/11 14:57:55;;;;;;;4.67;4.37;;;28.00;59.80;;;;;;6326868;28;20240;-64
2021/07/11 15:00:59;;;;;;;5.23;4.73;;;28.10;60.40;;;;;;6326776;28;20232;-62
2021/07/11 15:04:04;;;;;;;6.23;5.67;;;28.20;60.40;;;;;;6326760;28;20611;-63
2021/07/11 15:07:08;;;;;;;5.80;5.40;;;28.60;60.20;;;;;;6326608;28;20240;-62
2021/07/11 15:10:12;;;;;;;5.80;5.40;;;28.80;59.60;;;;;;6326828;28;20225;-63
2021/07/11 15:13:16;;;;;;;6.37;5.87;;;28.40;60.10;;;;;;6325691;28;20241;-63
2021/07/11 15:16:20;;;;;;;6.37;5.87;;;28.00;61.30;;;;;;6326399;28;20690;-62
2021/07/11 15:19:25;;;;;;;5.20;4.80;;;28.00;61.50;;;;;;6326681;28;20252;-63
2021/07/11 15:22:29;;;;;;;5.50;5.10;;;28.30;61.60;;;;;;6326390;28;20225;-63
2021/07/11 15:25:32;;;;;;;5.17;4.67;;;28.40;61.00;;;;;;6326584;28;20294;-63
2021/07/11 15:28:37;;;;;;;5.30;5.00;;;28.40;60.70;;;;;;6325925;28;20618;-63
2021/07/11 15:31:40;;;;;;;6.47;5.57;;;28.40;60.70;;;;;;6326233;28;20671;-63
2021/07/11 15:34:48;;;;;;;6.27;5.70;;;28.40;60.60;;;;;;6326262;28;20308;-63
2021/07/11 15:37:51;;;;;;;8.00;5.80;;;28.40;61.00;;;;;;6326335;28;20240;-63
2021/07/11 15:40:55;;;;;;;5.93;5.50;;;28.10;61.30;;;;;;6325872;28;20229;-64
2021/07/11 15:43:59;;;;;;;5.60;5.10;;;28.00;62.40;;;;;;6326132;28;20307;-63
2021/07/11 15:47:03;;;;;;;6.33;5.93;;;28.40;61.90;;;;;;6325900;28;20565;-63
2021/07/11 15:50:10;;;;;;;7.03;6.43;;;28.40;61.60;;;;;;6325754;28;20229;-65
2021/07/11 15:53:16;;;;;;;7.60;7.00;;;28.20;61.90;;;;;;6325989;28;20310;-63
2021/07/11 15:56:19;;;;;;;10.00;9.17;;;28.10;62.00;;;;;;6325450;28;20675;-62
2021/07/11 15:59:27;;;;;;;13.30;12.20;;;28.20;61.60;;;;;;6325463;28;20253;-62